createdAt,value
2018-08-13T00:02:03.614Z,3.13
2018-08-13T00:04:31.075Z,2.97
2018-08-13T00:06:58.459Z,3.00
2018-08-13T00:09:31.384Z,3.00
2018-08-13T00:11:58.915Z,3.40
2018-08-13T00:14:26.397Z,3.17
2018-08-13T00:16:53.723Z,3.10
2018-08-13T00:19:21.193Z,3.00
2018-08-13T00:21:49.160Z,3.40
2018-08-13T00:24:16.505Z,3.00
2018-08-13T00:26:44.111Z,2.90
2018-08-13T00:29:11.578Z,3.13
2018-08-13T00:31:39.063Z,3.20
2018-08-13T00:34:06.492Z,3.30
2018-08-13T00:36:33.836Z,3.10
2018-08-13T00:39:01.339Z,3.07
2018-08-13T00:41:29.123Z,3.80
2018-08-13T00:43:56.533Z,3.30
2018-08-13T00:46:23.883Z,3.20
2018-08-13T00:48:51.160Z,3.17
2018-08-13T00:51:18.507Z,3.40
2018-08-13T00:53:46.055Z,3.37
2018-08-13T00:56:13.371Z,3.53
2018-08-13T00:58:40.777Z,3.50
2018-08-13T01:01:08.124Z,3.30
2018-08-13T01:03:35.506Z,3.50
2018-08-13T01:06:02.838Z,3.70
2018-08-13T01:08:30.140Z,3.23
2018-08-13T01:10:57.574Z,2.70
2018-08-13T01:13:24.936Z,3.80
2018-08-13T01:15:53.019Z,3.17
2018-08-13T01:18:20.478Z,3.50
2018-08-13T01:20:47.975Z,3.30
2018-08-13T01:23:15.284Z,3.30
2018-08-13T01:25:42.677Z,3.27
2018-08-13T01:28:10.065Z,3.47
2018-08-13T01:30:37.479Z,3.53
2018-08-13T01:33:05.957Z,3.83
2018-08-13T01:35:33.261Z,3.90
2018-08-13T01:38:00.609Z,3.90
2018-08-13T01:40:28.032Z,3.20
2018-08-13T01:42:55.473Z,4.17
2018-08-13T01:45:22.798Z,3.60
2018-08-13T01:47:50.078Z,3.90
2018-08-13T01:50:17.531Z,3.93
2018-08-13T01:52:44.811Z,3.67
2018-08-13T01:55:12.161Z,3.83
2018-08-13T01:57:39.501Z,3.70
2018-08-13T02:00:12.077Z,3.90
2018-08-13T02:02:39.388Z,3.93
2018-08-13T02:05:06.927Z,4.07
2018-08-13T02:07:34.290Z,4.40
2018-08-13T02:10:01.572Z,4.03
2018-08-13T02:12:28.850Z,4.23
2018-08-13T02:14:56.263Z,4.00
2018-08-13T02:17:23.834Z,4.40
2018-08-13T02:19:51.312Z,4.53
2018-08-13T02:22:18.750Z,4.67
2018-08-13T02:24:46.295Z,4.20
2018-08-13T02:27:13.893Z,4.40
2018-08-13T02:29:41.373Z,4.37
2018-08-13T02:32:08.692Z,4.63
2018-08-13T02:34:36.094Z,4.00
2018-08-13T02:37:03.501Z,4.10
2018-08-13T02:39:30.887Z,4.40
2018-08-13T02:41:58.252Z,4.37
2018-08-13T02:44:25.909Z,4.40
2018-08-13T02:46:53.505Z,4.60
2018-08-13T02:49:20.935Z,4.70
2018-08-13T02:51:48.350Z,4.50
2018-08-13T02:54:15.962Z,4.10
2018-08-13T02:56:43.506Z,4.50
2018-08-13T02:59:11.059Z,4.57
2018-08-13T03:01:39.155Z,4.10
2018-08-13T03:04:06.497Z,4.50
2018-08-13T03:06:33.938Z,4.40
2018-08-13T03:09:01.235Z,4.73
2018-08-13T03:11:28.574Z,5.37
2018-08-13T03:13:55.953Z,5.23
2018-08-13T03:16:24.356Z,5.30
2018-08-13T03:18:52.331Z,5.17
2018-08-13T03:21:19.780Z,5.10
2018-08-13T03:23:47.549Z,5.40
2018-08-13T03:26:14.835Z,5.33
2018-08-13T03:28:42.154Z,5.07
2018-08-13T03:31:09.471Z,5.53
2018-08-13T03:33:37.702Z,5.13
2018-08-13T03:36:04.963Z,5.07
2018-08-13T03:38:33.049Z,5.40
2018-08-13T03:41:01.283Z,5.63
2018-08-13T03:43:28.825Z,5.87
2018-08-13T03:45:56.121Z,5.97
2018-08-13T03:48:23.433Z,5.63
2018-08-13T03:50:50.701Z,5.57
2018-08-13T03:53:18.057Z,5.43
2018-08-13T03:55:45.362Z,5.90
2018-08-13T03:58:12.776Z,5.87
2018-08-13T04:00:40.040Z,5.93
2018-08-13T04:03:07.492Z,5.50
2018-08-13T04:05:34.909Z,5.87
2018-08-13T04:08:02.322Z,5.50
2018-08-13T04:10:30.038Z,5.20
2018-08-13T04:12:57.459Z,5.73
2018-08-13T04:15:24.737Z,6.00
2018-08-13T04:17:52.028Z,5.40
2018-08-13T04:20:19.372Z,5.70
2018-08-13T04:22:46.738Z,5.63
2018-08-13T04:25:14.123Z,6.00
2018-08-13T04:27:41.480Z,5.43
2018-08-13T04:30:12.405Z,6.77
2018-08-13T04:32:39.882Z,6.33
2018-08-13T04:35:07.145Z,6.60
2018-08-13T04:37:34.512Z,6.13
2018-08-13T04:40:01.747Z,6.03
2018-08-13T04:42:29.019Z,5.87
2018-08-13T04:44:56.261Z,7.10
2018-08-13T04:47:24.150Z,7.10
2018-08-13T04:49:51.397Z,6.33
2018-08-13T04:52:18.664Z,6.90
2018-08-13T04:54:46.648Z,6.50
2018-08-13T04:57:13.998Z,6.83
2018-08-13T04:59:41.308Z,6.40
2018-08-13T05:02:08.689Z,6.90
2018-08-13T05:04:35.985Z,6.80
2018-08-13T05:07:03.554Z,7.10
2018-08-13T05:09:30.826Z,6.27
2018-08-13T05:11:58.686Z,7.20
2018-08-13T05:14:26.773Z,7.03
2018-08-13T05:16:54.112Z,7.97
2018-08-13T05:19:21.373Z,7.73
2018-08-13T05:21:49.318Z,7.30
2018-08-13T05:24:17.346Z,8.47
2018-08-13T05:26:45.054Z,7.30
2018-08-13T05:29:12.785Z,9.17
2018-08-13T05:31:40.205Z,8.93
2018-08-13T05:34:08.134Z,8.60
2018-08-13T05:36:35.385Z,8.77
2018-08-13T05:39:03.380Z,9.70
2018-08-13T05:41:30.627Z,9.23
2018-08-13T05:43:58.046Z,9.70
2018-08-13T05:46:25.345Z,9.33
2018-08-13T05:48:52.929Z,9.67
2018-08-13T05:51:20.329Z,9.53
2018-08-13T05:53:47.592Z,9.03
2018-08-13T05:56:14.887Z,9.37
2018-08-13T05:58:42.273Z,9.13
2018-08-13T06:01:09.580Z,9.57
2018-08-13T06:03:36.916Z,9.47
2018-08-13T06:06:04.210Z,8.90
2018-08-13T06:08:31.841Z,9.00
2018-08-13T06:10:59.309Z,8.53
2018-08-13T06:13:26.809Z,9.23
2018-08-13T06:15:54.052Z,8.80
2018-08-13T06:18:21.521Z,8.37
2018-08-13T06:20:48.863Z,8.03
2018-08-13T06:23:16.258Z,9.07
2018-08-13T06:25:43.582Z,8.37
2018-08-13T06:28:11.121Z,8.53
2018-08-13T06:30:38.430Z,8.77
2018-08-13T06:33:05.952Z,9.87
2018-08-13T06:35:33.296Z,9.30
2018-08-13T06:38:00.752Z,9.70
2018-08-13T06:40:28.291Z,9.70
2018-08-13T06:42:55.574Z,10.07
2018-08-13T06:45:22.840Z,9.47
2018-08-13T06:47:50.570Z,9.30
2018-08-13T06:50:17.918Z,9.73
2018-08-13T06:52:45.382Z,9.57
2018-08-13T06:55:12.783Z,9.50
2018-08-13T06:57:45.071Z,9.70
2018-08-13T07:00:13.495Z,9.87
2018-08-13T07:02:40.869Z,10.10
2018-08-13T07:05:09.295Z,9.53
2018-08-13T07:07:37.354Z,9.33
2018-08-13T07:10:08.551Z,9.17
2018-08-13T07:12:35.884Z,9.67
2018-08-13T07:15:03.677Z,10.13
2018-08-13T07:17:31.068Z,10.30
2018-08-13T07:19:58.423Z,9.77
2018-08-13T07:22:25.842Z,9.33
2018-08-13T07:24:53.322Z,9.60
2018-08-13T07:27:20.673Z,9.20
2018-08-13T07:29:48.159Z,8.30
2018-08-13T07:32:15.763Z,8.83
2018-08-13T07:34:43.117Z,8.47
2018-08-13T07:37:10.551Z,8.90
2018-08-13T07:39:37.947Z,8.47
2018-08-13T07:42:05.471Z,8.77
2018-08-13T07:44:33.082Z,8.23
2018-08-13T07:47:00.589Z,8.47
2018-08-13T07:49:27.868Z,7.97
2018-08-13T07:51:55.154Z,8.90
2018-08-13T07:54:22.512Z,9.00
2018-08-13T07:56:50.176Z,8.47
2018-08-13T07:59:17.628Z,8.60
2018-08-13T08:01:45.090Z,8.27
2018-08-13T08:04:12.516Z,8.27
2018-08-13T08:06:40.569Z,7.53
2018-08-13T08:09:09.377Z,8.10
2018-08-13T08:11:37.040Z,7.50
2018-08-13T08:14:04.998Z,7.63
2018-08-13T08:16:32.481Z,7.33
2018-08-13T08:18:59.914Z,6.67
2018-08-13T08:21:27.355Z,6.00
2018-08-13T08:23:54.750Z,5.63
2018-08-13T08:26:22.241Z,5.53
2018-08-13T08:28:50.977Z,4.80
2018-08-13T08:31:18.516Z,4.60
2018-08-13T08:33:46.015Z,5.30
2018-08-13T08:36:14.649Z,4.67
2018-08-13T08:38:43.613Z,4.63
2018-08-13T08:41:11.106Z,5.10
2018-08-13T08:43:38.604Z,5.13
2018-08-13T08:46:06.208Z,5.10
2018-08-13T08:48:33.570Z,4.60
2018-08-13T08:51:00.935Z,5.17
2018-08-13T08:53:28.347Z,5.27
2018-08-13T08:55:55.786Z,5.33
2018-08-13T08:58:23.347Z,5.73
2018-08-13T09:00:50.942Z,5.30
2018-08-13T09:03:18.274Z,5.73
2018-08-13T09:05:45.756Z,5.47
2018-08-13T09:08:13.143Z,5.40
2018-08-13T09:10:40.566Z,4.63
2018-08-13T09:13:07.904Z,5.03
2018-08-13T09:15:35.442Z,5.80
2018-08-13T09:18:14.093Z,5.67
2018-08-13T09:20:52.894Z,5.93
2018-08-13T09:23:31.647Z,4.77
2018-08-13T09:26:10.521Z,4.27
2018-08-13T09:28:49.392Z,4.53
2018-08-13T09:31:28.295Z,4.70
2018-08-13T09:34:07.907Z,5.07
2018-08-13T09:36:35.369Z,4.87
2018-08-13T09:39:03.361Z,5.30
2018-08-13T09:41:31.553Z,4.57
2018-08-13T09:43:59.353Z,4.30
2018-08-13T09:46:26.807Z,4.17
2018-08-13T09:48:54.332Z,4.47
2018-08-13T09:51:21.729Z,4.40
2018-08-13T09:53:49.359Z,5.37
2018-08-13T09:56:16.736Z,4.67
2018-08-13T09:58:44.029Z,3.70
2018-08-13T10:01:12.112Z,3.53
2018-08-13T10:03:40.138Z,2.50
2018-08-13T10:06:07.593Z,2.17
2018-08-13T10:08:35.001Z,2.10
2018-08-13T10:11:02.376Z,2.40
2018-08-13T10:13:29.973Z,2.30
2018-08-13T10:15:57.404Z,1.90
2018-08-13T10:18:24.782Z,2.37
2018-08-13T10:20:52.166Z,2.10
2018-08-13T10:23:19.495Z,2.10
2018-08-13T10:25:47.154Z,2.27
2018-08-13T10:28:15.449Z,2.00
2018-08-13T10:30:42.857Z,2.70
2018-08-13T10:33:10.213Z,2.20
2018-08-13T10:35:37.533Z,2.10
2018-08-13T10:38:04.947Z,2.40
2018-08-13T10:40:32.341Z,2.20
2018-08-13T10:42:59.766Z,2.50
2018-08-13T10:45:27.279Z,2.47
2018-08-13T10:47:55.538Z,1.90
2018-08-13T10:50:22.848Z,2.27
2018-08-13T10:52:50.237Z,1.50
2018-08-13T10:55:17.573Z,1.57
2018-08-13T10:57:44.944Z,1.63
2018-08-13T11:00:14.619Z,1.80
2018-08-13T11:02:42.006Z,1.50
2018-08-13T11:05:10.786Z,1.90
2018-08-13T11:07:38.228Z,1.80
2018-08-13T11:10:07.702Z,2.10
2018-08-13T11:12:35.557Z,1.70
2018-08-13T11:15:03.069Z,1.73
2018-08-13T11:17:30.578Z,2.13
2018-08-13T11:19:58.057Z,1.90
2018-08-13T11:22:25.412Z,3.63
2018-08-13T11:24:52.812Z,3.73
2018-08-13T11:27:20.269Z,4.03
2018-08-13T11:29:47.682Z,3.53
2018-08-13T11:32:15.160Z,4.60
2018-08-13T11:34:42.622Z,6.63
2018-08-13T11:37:10.348Z,7.63
2018-08-13T11:39:37.714Z,5.87
2018-08-13T11:42:05.436Z,6.23
2018-08-13T11:44:33.481Z,4.87
2018-08-13T11:47:00.977Z,4.73
2018-08-13T11:49:28.452Z,4.67
2018-08-13T11:51:56.010Z,4.23
2018-08-13T11:54:24.374Z,4.37
2018-08-13T11:56:51.876Z,3.83
2018-08-13T11:59:19.298Z,3.80
2018-08-13T12:01:47.610Z,3.90
2018-08-13T12:04:15.017Z,3.97
2018-08-13T12:06:42.404Z,3.43
2018-08-13T12:09:12.206Z,4.67
2018-08-13T12:11:41.808Z,4.60
2018-08-13T12:14:09.518Z,4.00
2018-08-13T12:16:37.152Z,4.60
2018-08-13T12:19:05.132Z,5.40
2018-08-13T12:21:32.625Z,4.90
2018-08-13T12:24:00.247Z,4.77
2018-08-13T12:26:27.724Z,5.70
2018-08-13T12:28:55.087Z,6.43
2018-08-13T12:31:22.457Z,6.30
2018-08-13T12:33:49.884Z,7.00
2018-08-13T12:36:17.402Z,9.97
2018-08-13T12:38:44.864Z,8.63
2018-08-13T12:41:12.360Z,9.63
2018-08-13T12:43:39.641Z,12.47
2018-08-13T12:46:07.242Z,6.87
2018-08-13T12:48:34.811Z,4.67
2018-08-13T12:51:02.203Z,3.93
2018-08-13T12:53:30.494Z,14.23
2018-08-13T12:55:58.170Z,4.53
2018-08-13T12:58:25.706Z,4.77
2018-08-13T13:00:57.098Z,4.50
2018-08-13T13:03:24.516Z,3.93
2018-08-13T13:05:51.851Z,4.13
2018-08-13T13:08:19.178Z,4.63
2018-08-13T13:10:46.772Z,4.87
2018-08-13T13:13:14.209Z,4.20
2018-08-13T13:15:42.516Z,3.87
2018-08-13T13:18:10.824Z,3.57
2018-08-13T13:20:38.484Z,3.00
2018-08-13T13:23:05.826Z,3.33
2018-08-13T13:25:33.255Z,3.10
2018-08-13T13:28:00.687Z,2.97
2018-08-13T13:30:28.375Z,2.43
2018-08-13T13:32:56.712Z,2.67
2018-08-13T13:35:25.124Z,3.47
2018-08-13T13:37:52.929Z,3.17
2018-08-13T13:40:20.405Z,3.37
2018-08-13T13:42:47.817Z,3.43
2018-08-13T13:45:16.605Z,3.63
2018-08-13T13:47:44.289Z,3.83
2018-08-13T13:50:14.805Z,3.53
2018-08-13T13:52:42.397Z,3.00
2018-08-13T13:55:10.240Z,2.83
2018-08-13T13:57:37.619Z,2.77
2018-08-13T14:00:10.142Z,3.07
2018-08-13T14:02:37.700Z,2.30
2018-08-13T14:05:05.481Z,2.90
2018-08-13T14:07:33.226Z,2.67
2018-08-13T14:10:00.893Z,2.80
2018-08-13T14:12:28.273Z,2.27
2018-08-13T14:14:56.359Z,2.70
2018-08-13T14:17:24.285Z,2.70
2018-08-13T14:19:51.789Z,2.60
2018-08-13T14:22:19.325Z,2.47
2018-08-13T14:24:47.045Z,2.27
2018-08-13T14:27:14.543Z,2.23
2018-08-13T14:29:42.843Z,2.93
2018-08-13T14:32:10.295Z,2.40
2018-08-13T14:34:38.344Z,2.60
2018-08-13T14:37:05.948Z,2.43
2018-08-13T14:39:33.470Z,2.50
2018-08-13T14:42:01.005Z,2.70
2018-08-13T14:44:29.241Z,2.73
2018-08-13T14:46:57.296Z,2.87
2018-08-13T14:49:24.817Z,2.33
2018-08-13T14:51:52.474Z,2.37
2018-08-13T14:54:19.869Z,2.30
2018-08-13T14:56:47.413Z,2.60
2018-08-13T14:59:14.794Z,2.77
2018-08-13T15:01:42.392Z,2.70
2018-08-13T15:04:10.203Z,3.03
2018-08-13T15:06:37.823Z,3.10
2018-08-13T15:09:12.700Z,3.20
2018-08-13T15:11:41.322Z,3.00
2018-08-13T15:14:10.972Z,3.37
2018-08-13T15:16:38.851Z,3.23
2018-08-13T15:19:06.760Z,3.60
2018-08-13T15:21:34.263Z,3.67
2018-08-13T15:24:02.136Z,3.20
2018-08-13T15:26:29.647Z,3.33
2018-08-13T15:28:57.352Z,3.90
2018-08-13T15:31:25.079Z,3.50
2018-08-13T15:33:52.765Z,4.00
2018-08-13T15:36:20.555Z,4.10
2018-08-13T15:38:48.189Z,3.90
2018-08-13T15:41:15.733Z,3.93
2018-08-13T15:43:43.068Z,4.30
2018-08-13T15:46:10.543Z,4.13
2018-08-13T15:48:37.895Z,4.17
2018-08-13T15:51:05.397Z,4.20
2018-08-13T15:53:33.032Z,4.50
2018-08-13T15:56:00.609Z,4.13
2018-08-13T15:58:28.133Z,4.47
2018-08-13T16:00:55.484Z,4.50
2018-08-13T16:03:23.132Z,4.73
2018-08-13T16:05:50.756Z,4.37
2018-08-13T16:08:19.194Z,4.80
2018-08-13T16:10:46.601Z,5.20
2018-08-13T16:13:15.153Z,4.93
2018-08-13T16:15:42.655Z,4.67
2018-08-13T16:18:10.371Z,4.87
2018-08-13T16:20:37.962Z,4.90
2018-08-13T16:23:06.100Z,4.83
2018-08-13T16:25:34.402Z,4.77
2018-08-13T16:28:02.414Z,5.20
2018-08-13T16:30:30.929Z,5.77
2018-08-13T16:32:58.434Z,5.13
2018-08-13T16:35:26.019Z,5.10
2018-08-13T16:37:53.846Z,6.00
2018-08-13T16:40:21.463Z,5.80
2018-08-13T16:42:49.481Z,5.50
2018-08-13T16:45:19.122Z,5.70
2018-08-13T16:47:47.298Z,4.70
2018-08-13T16:50:20.515Z,5.00
2018-08-13T16:52:51.637Z,5.10
2018-08-13T16:55:19.641Z,5.70
2018-08-13T16:57:47.425Z,5.40
2018-08-13T17:00:20.890Z,4.80
2018-08-13T17:02:48.529Z,4.97
2018-08-13T17:05:16.145Z,5.77
2018-08-13T17:07:43.579Z,5.37
2018-08-13T17:10:15.497Z,5.03
2018-08-13T17:12:43.508Z,4.87
2018-08-13T17:15:11.534Z,5.37
2018-08-13T17:17:39.009Z,5.50
2018-08-13T17:20:08.809Z,4.97
2018-08-13T17:22:37.107Z,5.20
2018-08-13T17:25:07.193Z,5.70
2018-08-13T17:27:34.833Z,4.83
2018-08-13T17:30:03.191Z,5.40
2018-08-13T17:32:30.525Z,5.20
2018-08-13T17:34:57.904Z,5.73
2018-08-13T17:37:25.918Z,5.27
2018-08-13T17:39:53.247Z,5.47
2018-08-13T17:42:20.934Z,5.40
2018-08-13T17:44:48.286Z,5.83
2018-08-13T17:47:15.992Z,5.93
2018-08-13T17:49:43.463Z,6.10
2018-08-13T17:52:11.124Z,6.00
2018-08-13T17:54:39.144Z,5.40
2018-08-13T17:57:08.361Z,5.77
2018-08-13T17:59:36.977Z,5.67
2018-08-13T18:02:04.264Z,5.60
2018-08-13T18:04:32.646Z,5.07
2018-08-13T18:07:00.143Z,4.90
2018-08-13T18:09:28.446Z,5.57
2018-08-13T18:11:56.223Z,5.40
2018-08-13T18:14:23.694Z,4.77
2018-08-13T18:16:51.040Z,5.60
2018-08-13T18:19:18.615Z,5.23
2018-08-13T18:21:46.157Z,5.07
2018-08-13T18:24:13.593Z,5.23
2018-08-13T18:26:41.400Z,5.03
2018-08-13T18:29:09.232Z,5.50
2018-08-13T18:31:36.908Z,5.67
2018-08-13T18:34:04.633Z,5.63
2018-08-13T18:36:32.289Z,6.07
2018-08-13T18:39:00.013Z,5.73
2018-08-13T18:41:27.503Z,5.50
2018-08-13T18:43:55.132Z,5.53
2018-08-13T18:46:22.843Z,5.10
2018-08-13T18:48:50.596Z,4.70
2018-08-13T18:51:17.921Z,4.87
2018-08-13T18:53:45.708Z,4.77
2018-08-13T18:56:12.973Z,4.50
2018-08-13T18:58:40.308Z,4.40
2018-08-13T19:01:08.243Z,4.70
2018-08-13T19:03:35.551Z,5.30
2018-08-13T19:06:03.368Z,4.67
2018-08-13T19:08:30.798Z,5.20
2018-08-13T19:10:58.396Z,5.10
2018-08-13T19:13:25.982Z,5.40
2018-08-13T19:15:53.620Z,5.70
2018-08-13T19:18:21.075Z,5.50
2018-08-13T19:20:49.147Z,5.43
2018-08-13T19:23:17.458Z,5.60
2018-08-13T19:25:44.979Z,5.43
2018-08-13T19:28:12.358Z,5.63
2018-08-13T19:30:39.687Z,6.13
2018-08-13T19:33:07.514Z,6.13
2018-08-13T19:35:35.149Z,5.77
2018-08-13T19:38:02.659Z,6.83
2018-08-13T19:40:30.109Z,6.53
2018-08-13T19:42:57.561Z,6.93
2018-08-13T19:45:26.299Z,7.20
2018-08-13T19:47:54.145Z,6.20
2018-08-13T19:50:21.688Z,7.30
2018-08-13T19:52:49.618Z,7.83
2018-08-13T19:55:17.581Z,7.73
2018-08-13T19:57:45.070Z,7.57
2018-08-13T20:00:19.906Z,7.70
2018-08-13T20:02:47.806Z,7.73
2018-08-13T20:05:15.884Z,7.87
2018-08-13T20:07:43.584Z,7.03
2018-08-13T20:10:14.645Z,6.20
2018-08-13T20:12:43.154Z,6.80
2018-08-13T20:15:11.108Z,6.57
2018-08-13T20:17:38.521Z,7.00
2018-08-13T20:20:08.365Z,6.87
2018-08-13T20:22:36.336Z,5.57
2018-08-13T20:25:04.016Z,5.53
2018-08-13T20:27:31.518Z,5.03
2018-08-13T20:32:33.907Z,5.63
2018-08-13T20:35:01.323Z,4.90
2018-08-13T20:37:29.682Z,4.83
2018-08-13T20:39:57.064Z,5.47
2018-08-13T20:42:25.095Z,5.10
2018-08-13T20:44:52.670Z,5.57
2018-08-13T20:47:20.243Z,5.20
2018-08-13T20:49:47.658Z,5.87
2018-08-13T20:52:14.954Z,5.40
2018-08-13T20:54:42.285Z,5.30
2018-08-13T20:57:09.912Z,5.03
2018-08-13T20:59:37.240Z,4.93
2018-08-13T21:02:05.867Z,5.20
2018-08-13T21:04:33.184Z,5.20
2018-08-13T21:07:00.464Z,4.90
2018-08-13T21:09:27.735Z,5.63
2018-08-13T21:11:55.042Z,5.80
2018-08-13T21:14:22.356Z,5.53
2018-08-13T21:16:49.707Z,5.43
2018-08-13T21:19:17.084Z,5.70
2018-08-13T21:21:44.545Z,5.83
2018-08-13T21:24:12.028Z,5.77
2018-08-13T21:26:39.518Z,5.70
2018-08-13T21:29:06.827Z,5.70
2018-08-13T21:31:34.135Z,5.50
2018-08-13T21:34:01.591Z,6.40
2018-08-13T21:36:28.941Z,5.80
2018-08-13T21:38:56.397Z,5.93
2018-08-13T21:41:23.731Z,5.60
2018-08-13T21:43:51.089Z,6.83
2018-08-13T21:46:18.512Z,6.43
2018-08-13T21:48:46.002Z,7.00
2018-08-13T21:51:13.717Z,6.50
2018-08-13T21:53:41.127Z,6.47
2018-08-13T21:56:08.616Z,6.87
2018-08-13T21:58:37.201Z,5.67
2018-08-13T22:01:10.278Z,6.33
2018-08-13T22:03:39.934Z,5.67
2018-08-13T22:06:07.229Z,6.37
2018-08-13T22:08:34.986Z,5.40
2018-08-13T22:11:02.269Z,5.20
2018-08-13T22:13:29.573Z,5.73
2018-08-13T22:15:56.945Z,5.87
2018-08-13T22:18:25.233Z,6.43
2018-08-13T22:20:53.047Z,6.07
2018-08-13T22:23:20.395Z,5.73
2018-08-13T22:25:47.742Z,6.03
2018-08-13T22:28:16.766Z,6.00
2018-08-13T22:30:44.250Z,6.33
2018-08-13T22:33:11.979Z,6.10
2018-08-13T22:35:39.460Z,6.50
2018-08-13T22:38:07.433Z,6.33
2018-08-13T22:40:35.511Z,5.67
2018-08-13T22:43:02.902Z,6.60
2018-08-13T22:45:30.186Z,6.47
2018-08-13T22:47:57.553Z,6.37
2018-08-13T22:50:25.612Z,6.40
2018-08-13T22:52:52.919Z,6.63
2018-08-13T22:55:20.322Z,6.73
2018-08-13T22:57:48.035Z,6.23
2018-08-13T23:00:17.307Z,7.13
2018-08-13T23:02:45.378Z,6.60
2018-08-13T23:05:15.396Z,6.50
2018-08-13T23:07:42.665Z,7.40
2018-08-13T23:10:12.182Z,6.50
2018-08-13T23:12:39.473Z,6.60
2018-08-13T23:15:09.707Z,6.63
2018-08-13T23:17:37.205Z,6.63
2018-08-13T23:20:06.565Z,6.43
2018-08-13T23:23:02.935Z,6.47
2018-08-13T23:25:32.430Z,6.33
2018-08-13T23:28:01.531Z,5.60
2018-08-13T23:30:29.100Z,5.97
2018-08-13T23:32:57.151Z,5.90
2018-08-13T23:35:25.165Z,5.53
2018-08-13T23:37:52.905Z,5.80
2018-08-13T23:40:20.451Z,5.50
2018-08-13T23:42:47.770Z,5.30
2018-08-13T23:45:16.304Z,5.30
2018-08-13T23:47:43.758Z,5.77
2018-08-13T23:50:15.664Z,5.00
2018-08-13T23:52:42.977Z,4.80
2018-08-13T23:55:15.954Z,5.03
2018-08-13T23:57:43.280Z,4.87
